sensor_id;sensor_type;location;lat;lon;timestamp;P1;durP1;ratioP1;P2;durP2;ratioP2
40755;SDS011;26461;45.630;9.418;2023-01-29T00:01:54;27.27;;;22.80;;
40755;SDS011;26461;45.630;9.418;2023-01-29T00:05:00;27.48;;;13.10;;
40755;SDS011;26461;45.630;9.418;2023-01-29T00:08:09;17.70;;;15.98;;
40755;SDS011;26461;45.630;9.418;2023-01-29T00:11:19;19.85;;;17.08;;
40755;SDS011;26461;45.630;9.418;2023-01-29T00:14:24;16.15;;;12.93;;
40755;SDS011;26461;45.630;9.418;2023-01-29T00:17:32;12.38;;;11.77;;
40755;SDS011;26461;45.630;9.418;2023-01-29T00:20:38;16.73;;;15.07;;
40755;SDS011;26461;45.630;9.418;2023-01-29T00:23:47;22.73;;;16.48;;
40755;SDS011;26461;45.630;9.418;2023-01-29T00:26:57;19.63;;;12.82;;
40755;SDS011;26461;45.630;9.418;2023-01-29T00:30:04;23.17;;;14.30;;
40755;SDS011;26461;45.630;9.418;2023-01-29T00:33:17;12.15;;;10.75;;
40755;SDS011;26461;45.630;9.418;2023-01-29T00:36:23;24.08;;;16.00;;
40755;SDS011;26461;45.630;9.418;2023-01-29T00:39:35;22.50;;;14.88;;
40755;SDS011;26461;45.630;9.418;2023-01-29T00:42:43;33.80;;;16.42;;
40755;SDS011;26461;45.630;9.418;2023-01-29T00:46:11;17.80;;;11.05;;
40755;SDS011;26461;45.630;9.418;2023-01-29T00:49:19;15.38;;;10.60;;
40755;SDS011;26461;45.630;9.418;2023-01-29T00:52:25;18.58;;;14.20;;
40755;SDS011;26461;45.630;9.418;2023-01-29T00:55:30;21.88;;;14.95;;
40755;SDS011;26461;45.630;9.418;2023-01-29T00:58:35;19.20;;;13.20;;
40755;SDS011;26461;45.630;9.418;2023-01-29T01:01:41;15.90;;;14.65;;
40755;SDS011;26461;45.630;9.418;2023-01-29T01:05:05;25.05;;;12.32;;
40755;SDS011;26461;45.630;9.418;2023-01-29T01:08:16;21.40;;;12.40;;
40755;SDS011;26461;45.630;9.418;2023-01-29T01:11:48;15.43;;;13.15;;
40755;SDS011;26461;45.630;9.418;2023-01-29T01:14:53;18.92;;;12.77;;
40755;SDS011;26461;45.630;9.418;2023-01-29T01:17:58;24.17;;;11.43;;
40755;SDS011;26461;45.630;9.418;2023-01-29T01:21:06;15.75;;;13.63;;
40755;SDS011;26461;45.630;9.418;2023-01-29T01:24:16;14.98;;;13.85;;
40755;SDS011;26461;45.630;9.418;2023-01-29T01:27:21;15.27;;;10.77;;
40755;SDS011;26461;45.630;9.418;2023-01-29T01:30:28;17.95;;;13.98;;
40755;SDS011;26461;45.630;9.418;2023-01-29T01:33:33;13.13;;;11.32;;
40755;SDS011;26461;45.630;9.418;2023-01-29T01:36:38;15.75;;;11.82;;
40755;SDS011;26461;45.630;9.418;2023-01-29T01:39:49;25.17;;;15.23;;
40755;SDS011;26461;45.630;9.418;2023-01-29T01:42:59;19.88;;;12.00;;
40755;SDS011;26461;45.630;9.418;2023-01-29T01:46:05;16.67;;;11.80;;
40755;SDS011;26461;45.630;9.418;2023-01-29T01:49:13;16.15;;;13.73;;
40755;SDS011;26461;45.630;9.418;2023-01-29T01:52:21;24.58;;;13.27;;
40755;SDS011;26461;45.630;9.418;2023-01-29T01:55:27;20.38;;;12.18;;
40755;SDS011;26461;45.630;9.418;2023-01-29T01:58:37;12.43;;;11.77;;
40755;SDS011;26461;45.630;9.418;2023-01-29T02:01:50;18.80;;;17.85;;
40755;SDS011;26461;45.630;9.418;2023-01-29T02:04:57;18.33;;;14.00;;
40755;SDS011;26461;45.630;9.418;2023-01-29T02:08:27;16.17;;;12.82;;
40755;SDS011;26461;45.630;9.418;2023-01-29T02:11:58;26.63;;;14.18;;
40755;SDS011;26461;45.630;9.418;2023-01-29T02:15:15;18.30;;;15.45;;
40755;SDS011;26461;45.630;9.418;2023-01-29T02:18:21;23.15;;;14.00;;
40755;SDS011;26461;45.630;9.418;2023-01-29T02:31:43;18.65;;;12.18;;
40755;SDS011;26461;45.630;9.418;2023-01-29T02:41:57;15.32;;;13.93;;
40755;SDS011;26461;45.630;9.418;2023-01-29T02:45:09;12.15;;;10.55;;
40755;SDS011;26461;45.630;9.418;2023-01-29T02:48:22;23.23;;;12.95;;
40755;SDS011;26461;45.630;9.418;2023-01-29T02:51:33;30.67;;;12.52;;
40755;SDS011;26461;45.630;9.418;2023-01-29T02:55:15;24.83;;;11.77;;
40755;SDS011;26461;45.630;9.418;2023-01-29T02:58:30;23.55;;;11.30;;
40755;SDS011;26461;45.630;9.418;2023-01-29T03:02:16;15.52;;;13.32;;
40755;SDS011;26461;45.630;9.418;2023-01-29T03:05:22;12.23;;;11.48;;
40755;SDS011;26461;45.630;9.418;2023-01-29T03:08:40;18.65;;;15.65;;
40755;SDS011;26461;45.630;9.418;2023-01-29T03:11:51;31.23;;;11.40;;
40755;SDS011;26461;45.630;9.418;2023-01-29T03:15:14;16.67;;;10.65;;
40755;SDS011;26461;45.630;9.418;2023-01-29T03:19:00;16.00;;;10.65;;
40755;SDS011;26461;45.630;9.418;2023-01-29T03:22:11;13.45;;;11.90;;
40755;SDS011;26461;45.630;9.418;2023-01-29T03:25:21;15.05;;;14.27;;
40755;SDS011;26461;45.630;9.418;2023-01-29T03:28:48;14.45;;;8.25;;
40755;SDS011;26461;45.630;9.418;2023-01-29T03:32:18;16.70;;;12.68;;
40755;SDS011;26461;45.630;9.418;2023-01-29T03:35:26;17.58;;;10.90;;
40755;SDS011;26461;45.630;9.418;2023-01-29T03:38:45;13.13;;;9.35;;
40755;SDS011;26461;45.630;9.418;2023-01-29T03:49:00;20.65;;;10.68;;
40755;SDS011;26461;45.630;9.418;2023-01-29T03:55:57;22.50;;;14.98;;
40755;SDS011;26461;45.630;9.418;2023-01-29T04:06:23;10.23;;;9.07;;
40755;SDS011;26461;45.630;9.418;2023-01-29T04:09:43;22.65;;;13.98;;
40755;SDS011;26461;45.630;9.418;2023-01-29T04:12:52;16.67;;;9.23;;
40755;SDS011;26461;45.630;9.418;2023-01-29T04:16:03;9.75;;;7.18;;
40755;SDS011;26461;45.630;9.418;2023-01-29T04:19:28;14.07;;;8.88;;
40755;SDS011;26461;45.630;9.418;2023-01-29T04:22:36;22.92;;;11.13;;
40755;SDS011;26461;45.630;9.418;2023-01-29T04:25:43;40.75;;;14.00;;
40755;SDS011;26461;45.630;9.418;2023-01-29T04:29:15;20.65;;;11.20;;
40755;SDS011;26461;45.630;9.418;2023-01-29T04:32:59;13.05;;;12.35;;
40755;SDS011;26461;45.630;9.418;2023-01-29T04:39:42;13.25;;;10.55;;
40755;SDS011;26461;45.630;9.418;2023-01-29T04:46:12;11.05;;;10.43;;
40755;SDS011;26461;45.630;9.418;2023-01-29T04:52:58;13.52;;;9.60;;
40755;SDS011;26461;45.630;9.418;2023-01-29T04:59:35;15.95;;;10.85;;
40755;SDS011;26461;45.630;9.418;2023-01-29T05:02:48;17.85;;;10.85;;
40755;SDS011;26461;45.630;9.418;2023-01-29T05:05:54;15.73;;;10.45;;
40755;SDS011;26461;45.630;9.418;2023-01-29T05:09:02;8.93;;;8.43;;
40755;SDS011;26461;45.630;9.418;2023-01-29T05:12:08;12.75;;;9.77;;
40755;SDS011;26461;45.630;9.418;2023-01-29T05:15:21;15.23;;;12.70;;
40755;SDS011;26461;45.630;9.418;2023-01-29T05:18:29;18.67;;;10.70;;
40755;SDS011;26461;45.630;9.418;2023-01-29T05:21:35;12.95;;;7.90;;
40755;SDS011;26461;45.630;9.418;2023-01-29T05:24:40;14.15;;;8.43;;
40755;SDS011;26461;45.630;9.418;2023-01-29T05:27:45;14.80;;;10.07;;
40755;SDS011;26461;45.630;9.418;2023-01-29T05:31:17;12.65;;;9.05;;
40755;SDS011;26461;45.630;9.418;2023-01-29T05:34:28;12.50;;;10.60;;
40755;SDS011;26461;45.630;9.418;2023-01-29T05:37:34;12.38;;;9.02;;
40755;SDS011;26461;45.630;9.418;2023-01-29T05:40:39;8.35;;;6.85;;
40755;SDS011;26461;45.630;9.418;2023-01-29T05:43:44;12.75;;;12.07;;
40755;SDS011;26461;45.630;9.418;2023-01-29T05:46:49;18.55;;;13.50;;
40755;SDS011;26461;45.630;9.418;2023-01-29T05:49:55;18.50;;;11.13;;
40755;SDS011;26461;45.630;9.418;2023-01-29T05:53:01;11.25;;;10.68;;
40755;SDS011;26461;45.630;9.418;2023-01-29T05:56:12;23.58;;;11.43;;
40755;SDS011;26461;45.630;9.418;2023-01-29T05:59:21;11.52;;;10.48;;
40755;SDS011;26461;45.630;9.418;2023-01-29T06:02:30;11.63;;;8.15;;
40755;SDS011;26461;45.630;9.418;2023-01-29T06:05:36;12.05;;;9.77;;
40755;SDS011;26461;45.630;9.418;2023-01-29T06:08:41;21.27;;;11.75;;
40755;SDS011;26461;45.630;9.418;2023-01-29T06:11:46;14.63;;;7.65;;
40755;SDS011;26461;45.630;9.418;2023-01-29T06:14:52;23.60;;;12.38;;
40755;SDS011;26461;45.630;9.418;2023-01-29T06:18:02;10.77;;;8.93;;
40755;SDS011;26461;45.630;9.418;2023-01-29T06:21:09;13.05;;;6.93;;
40755;SDS011;26461;45.630;9.418;2023-01-29T06:24:16;18.15;;;9.13;;
40755;SDS011;26461;45.630;9.418;2023-01-29T06:27:22;16.67;;;15.02;;
40755;SDS011;26461;45.630;9.418;2023-01-29T06:30:27;11.75;;;7.47;;
40755;SDS011;26461;45.630;9.418;2023-01-29T06:33:32;15.32;;;9.70;;
40755;SDS011;26461;45.630;9.418;2023-01-29T06:36:43;19.80;;;11.77;;
40755;SDS011;26461;45.630;9.418;2023-01-29T06:39:49;15.52;;;9.77;;
40755;SDS011;26461;45.630;9.418;2023-01-29T06:42:59;9.23;;;8.75;;
40755;SDS011;26461;45.630;9.418;2023-01-29T06:46:06;19.27;;;10.18;;
40755;SDS011;26461;45.630;9.418;2023-01-29T06:49:16;17.42;;;8.32;;
40755;SDS011;26461;45.630;9.418;2023-01-29T06:52:21;13.57;;;8.45;;
40755;SDS011;26461;45.630;9.418;2023-01-29T06:55:26;9.75;;;9.15;;
40755;SDS011;26461;45.630;9.418;2023-01-29T06:58:32;11.13;;;9.77;;
40755;SDS011;26461;45.630;9.418;2023-01-29T07:01:42;16.38;;;15.55;;
40755;SDS011;26461;45.630;9.418;2023-01-29T07:04:47;21.25;;;10.85;;
40755;SDS011;26461;45.630;9.418;2023-01-29T07:07:53;12.10;;;9.13;;
40755;SDS011;26461;45.630;9.418;2023-01-29T07:10:58;15.02;;;8.90;;
40755;SDS011;26461;45.630;9.418;2023-01-29T07:14:04;14.95;;;8.57;;
40755;SDS011;26461;45.630;9.418;2023-01-29T07:17:09;15.68;;;10.43;;
40755;SDS011;26461;45.630;9.418;2023-01-29T07:20:14;12.52;;;7.68;;
40755;SDS011;26461;45.630;9.418;2023-01-29T07:23:19;13.23;;;10.88;;
40755;SDS011;26461;45.630;9.418;2023-01-29T07:26:25;15.10;;;11.40;;
40755;SDS011;26461;45.630;9.418;2023-01-29T07:29:30;19.73;;;10.52;;
40755;SDS011;26461;45.630;9.418;2023-01-29T07:32:35;11.40;;;8.68;;
40755;SDS011;26461;45.630;9.418;2023-01-29T07:35:42;9.70;;;8.88;;
40755;SDS011;26461;45.630;9.418;2023-01-29T07:38:52;24.60;;;13.63;;
40755;SDS011;26461;45.630;9.418;2023-01-29T07:42:01;15.13;;;11.15;;
40755;SDS011;26461;45.630;9.418;2023-01-29T07:45:14;17.33;;;15.95;;
40755;SDS011;26461;45.630;9.418;2023-01-29T07:48:18;20.75;;;9.30;;
40755;SDS011;26461;45.630;9.418;2023-01-29T07:51:23;16.30;;;8.63;;
40755;SDS011;26461;45.630;9.418;2023-01-29T07:54:29;16.02;;;8.88;;
40755;SDS011;26461;45.630;9.418;2023-01-29T07:57:37;14.93;;;12.18;;
40755;SDS011;26461;45.630;9.418;2023-01-29T08:00:41;22.80;;;12.68;;
40755;SDS011;26461;45.630;9.418;2023-01-29T08:03:52;14.23;;;12.85;;
40755;SDS011;26461;45.630;9.418;2023-01-29T08:06:59;13.23;;;10.00;;
40755;SDS011;26461;45.630;9.418;2023-01-29T08:10:09;15.45;;;10.07;;
40755;SDS011;26461;45.630;9.418;2023-01-29T08:13:20;16.25;;;12.20;;
40755;SDS011;26461;45.630;9.418;2023-01-29T08:16:29;18.40;;;11.18;;
40755;SDS011;26461;45.630;9.418;2023-01-29T08:19:39;9.52;;;9.02;;
40755;SDS011;26461;45.630;9.418;2023-01-29T08:22:49;13.45;;;9.98;;
40755;SDS011;26461;45.630;9.418;2023-01-29T08:26:07;20.52;;;14.98;;
40755;SDS011;26461;45.630;9.418;2023-01-29T08:29:18;14.93;;;6.75;;
40755;SDS011;26461;45.630;9.418;2023-01-29T08:32:27;10.38;;;8.45;;
40755;SDS011;26461;45.630;9.418;2023-01-29T08:35:37;13.20;;;8.32;;
40755;SDS011;26461;45.630;9.418;2023-01-29T08:38:49;15.55;;;8.88;;
40755;SDS011;26461;45.630;9.418;2023-01-29T08:41:59;15.40;;;5.93;;
40755;SDS011;26461;45.630;9.418;2023-01-29T08:45:09;13.98;;;6.00;;
40755;SDS011;26461;45.630;9.418;2023-01-29T08:48:19;9.90;;;8.18;;
40755;SDS011;26461;45.630;9.418;2023-01-29T08:51:28;14.30;;;7.65;;
40755;SDS011;26461;45.630;9.418;2023-01-29T08:54:38;8.25;;;7.88;;
40755;SDS011;26461;45.630;9.418;2023-01-29T08:57:43;12.80;;;10.68;;
40755;SDS011;26461;45.630;9.418;2023-01-29T09:00:53;6.60;;;6.20;;
40755;SDS011;26461;45.630;9.418;2023-01-29T09:04:03;17.65;;;9.18;;
40755;SDS011;26461;45.630;9.418;2023-01-29T09:07:13;15.57;;;7.55;;
40755;SDS011;26461;45.630;9.418;2023-01-29T09:10:23;7.38;;;6.35;;
40755;SDS011;26461;45.630;9.418;2023-01-29T09:13:33;17.30;;;11.50;;
40755;SDS011;26461;45.630;9.418;2023-01-29T09:16:43;11.35;;;8.88;;
40755;SDS011;26461;45.630;9.418;2023-01-29T09:19:53;19.17;;;13.43;;
40755;SDS011;26461;45.630;9.418;2023-01-29T09:23:04;15.75;;;8.00;;
40755;SDS011;26461;45.630;9.418;2023-01-29T09:26:15;9.75;;;8.75;;
40755;SDS011;26461;45.630;9.418;2023-01-29T09:29:25;18.45;;;9.77;;
40755;SDS011;26461;45.630;9.418;2023-01-29T09:32:34;18.13;;;8.10;;
40755;SDS011;26461;45.630;9.418;2023-01-29T09:35:44;13.57;;;9.20;;
40755;SDS011;26461;45.630;9.418;2023-01-29T09:38:55;13.10;;;8.07;;
40755;SDS011;26461;45.630;9.418;2023-01-29T09:42:14;15.25;;;8.02;;
40755;SDS011;26461;45.630;9.418;2023-01-29T09:45:31;12.90;;;9.55;;
40755;SDS011;26461;45.630;9.418;2023-01-29T09:48:42;11.93;;;11.35;;
40755;SDS011;26461;45.630;9.418;2023-01-29T09:51:57;24.42;;;11.82;;
40755;SDS011;26461;45.630;9.418;2023-01-29T09:55:30;12.15;;;9.20;;
40755;SDS011;26461;45.630;9.418;2023-01-29T09:58:39;17.17;;;9.70;;
40755;SDS011;26461;45.630;9.418;2023-01-29T10:05:56;22.48;;;10.73;;
40755;SDS011;26461;45.630;9.418;2023-01-29T10:22:44;10.27;;;6.85;;
40755;SDS011;26461;45.630;9.418;2023-01-29T10:26:11;21.98;;;11.88;;
40755;SDS011;26461;45.630;9.418;2023-01-29T10:29:22;17.90;;;15.43;;
40755;SDS011;26461;45.630;9.418;2023-01-29T10:32:34;14.88;;;10.18;;
40755;SDS011;26461;45.630;9.418;2023-01-29T10:35:47;16.23;;;13.80;;
40755;SDS011;26461;45.630;9.418;2023-01-29T10:39:01;11.68;;;10.55;;
40755;SDS011;26461;45.630;9.418;2023-01-29T10:42:34;25.50;;;14.20;;
40755;SDS011;26461;45.630;9.418;2023-01-29T10:45:51;20.02;;;15.10;;
40755;SDS011;26461;45.630;9.418;2023-01-29T11:03:12;24.15;;;13.52;;
40755;SDS011;26461;45.630;9.418;2023-01-29T11:06:30;17.63;;;13.95;;
40755;SDS011;26461;45.630;9.418;2023-01-29T11:09:47;26.50;;;15.30;;
40755;SDS011;26461;45.630;9.418;2023-01-29T11:13:12;17.88;;;10.32;;
40755;SDS011;26461;45.630;9.418;2023-01-29T11:16:28;22.48;;;12.57;;
40755;SDS011;26461;45.630;9.418;2023-01-29T11:19:39;21.83;;;13.75;;
40755;SDS011;26461;45.630;9.418;2023-01-29T11:22:54;25.95;;;20.15;;
40755;SDS011;26461;45.630;9.418;2023-01-29T11:26:04;27.33;;;15.48;;
40755;SDS011;26461;45.630;9.418;2023-01-29T11:29:29;17.55;;;11.95;;
40755;SDS011;26461;45.630;9.418;2023-01-29T11:32:50;26.52;;;11.38;;
40755;SDS011;26461;45.630;9.418;2023-01-29T11:36:19;19.77;;;12.40;;
40755;SDS011;26461;45.630;9.418;2023-01-29T11:39:30;20.75;;;16.73;;
40755;SDS011;26461;45.630;9.418;2023-01-29T11:42:40;23.67;;;14.18;;
40755;SDS011;26461;45.630;9.418;2023-01-29T11:45:52;33.22;;;19.63;;
40755;SDS011;26461;45.630;9.418;2023-01-29T11:49:03;18.50;;;12.45;;
40755;SDS011;26461;45.630;9.418;2023-01-29T11:52:13;15.93;;;12.40;;
40755;SDS011;26461;45.630;9.418;2023-01-29T11:55:26;19.98;;;10.85;;
40755;SDS011;26461;45.630;9.418;2023-01-29T11:58:39;23.60;;;13.82;;
40755;SDS011;26461;45.630;9.418;2023-01-29T12:01:50;20.83;;;11.27;;
40755;SDS011;26461;45.630;9.418;2023-01-29T12:04:56;23.75;;;12.95;;
40755;SDS011;26461;45.630;9.418;2023-01-29T12:08:12;17.25;;;10.80;;
40755;SDS011;26461;45.630;9.418;2023-01-29T12:11:29;20.02;;;13.60;;
40755;SDS011;26461;45.630;9.418;2023-01-29T12:14:40;34.40;;;13.63;;
40755;SDS011;26461;45.630;9.418;2023-01-29T12:21:45;23.92;;;15.82;;
40755;SDS011;26461;45.630;9.418;2023-01-29T12:25:01;21.27;;;13.93;;
40755;SDS011;26461;45.630;9.418;2023-01-29T12:35:37;24.05;;;13.38;;
40755;SDS011;26461;45.630;9.418;2023-01-29T12:38:54;10.07;;;8.98;;
40755;SDS011;26461;45.630;9.418;2023-01-29T12:42:07;17.85;;;12.90;;
40755;SDS011;26461;45.630;9.418;2023-01-29T12:45:27;21.50;;;11.48;;
40755;SDS011;26461;45.630;9.418;2023-01-29T12:48:38;10.85;;;10.25;;
40755;SDS011;26461;45.630;9.418;2023-01-29T12:51:57;20.77;;;14.23;;
40755;SDS011;26461;45.630;9.418;2023-01-29T12:58:31;22.92;;;12.32;;
40755;SDS011;26461;45.630;9.418;2023-01-29T13:01:55;12.20;;;9.27;;
40755;SDS011;26461;45.630;9.418;2023-01-29T13:05:17;22.52;;;13.23;;
40755;SDS011;26461;45.630;9.418;2023-01-29T13:08:25;25.40;;;11.00;;
40755;SDS011;26461;45.630;9.418;2023-01-29T13:11:50;29.63;;;11.43;;
40755;SDS011;26461;45.630;9.418;2023-01-29T13:15:16;23.77;;;11.98;;
40755;SDS011;26461;45.630;9.418;2023-01-29T13:18:40;15.13;;;6.25;;
40755;SDS011;26461;45.630;9.418;2023-01-29T13:21:55;21.23;;;8.57;;
40755;SDS011;26461;45.630;9.418;2023-01-29T13:25:03;19.10;;;12.15;;
40755;SDS011;26461;45.630;9.418;2023-01-29T13:28:15;14.60;;;12.13;;
40755;SDS011;26461;45.630;9.418;2023-01-29T13:31:37;18.10;;;10.65;;
40755;SDS011;26461;45.630;9.418;2023-01-29T13:34:44;22.02;;;9.63;;
40755;SDS011;26461;45.630;9.418;2023-01-29T13:37:52;18.27;;;10.75;;
40755;SDS011;26461;45.630;9.418;2023-01-29T13:41:04;21.88;;;12.63;;
40755;SDS011;26461;45.630;9.418;2023-01-29T13:47:51;14.75;;;10.55;;
40755;SDS011;26461;45.630;9.418;2023-01-29T13:51:02;22.17;;;7.93;;
40755;SDS011;26461;45.630;9.418;2023-01-29T13:54:27;16.83;;;10.75;;
40755;SDS011;26461;45.630;9.418;2023-01-29T14:00:55;13.20;;;7.80;;
40755;SDS011;26461;45.630;9.418;2023-01-29T14:04:03;12.90;;;9.70;;
40755;SDS011;26461;45.630;9.418;2023-01-29T14:18:02;21.08;;;9.82;;
40755;SDS011;26461;45.630;9.418;2023-01-29T14:21:22;14.00;;;8.90;;
40755;SDS011;26461;45.630;9.418;2023-01-29T14:24:37;16.73;;;10.25;;
40755;SDS011;26461;45.630;9.418;2023-01-29T14:27:52;20.52;;;12.27;;
40755;SDS011;26461;45.630;9.418;2023-01-29T14:31:01;17.40;;;9.77;;
40755;SDS011;26461;45.630;9.418;2023-01-29T14:34:13;19.80;;;9.10;;
40755;SDS011;26461;45.630;9.418;2023-01-29T14:37:32;25.08;;;10.93;;
40755;SDS011;26461;45.630;9.418;2023-01-29T14:40:41;21.23;;;11.45;;
40755;SDS011;26461;45.630;9.418;2023-01-29T14:50:51;18.00;;;11.45;;
40755;SDS011;26461;45.630;9.418;2023-01-29T14:54:24;23.55;;;11.35;;
40755;SDS011;26461;45.630;9.418;2023-01-29T14:57:36;21.60;;;14.00;;
40755;SDS011;26461;45.630;9.418;2023-01-29T15:00:49;11.80;;;5.90;;
40755;SDS011;26461;45.630;9.418;2023-01-29T15:04:13;14.93;;;7.93;;
40755;SDS011;26461;45.630;9.418;2023-01-29T15:07:32;18.90;;;10.32;;
40755;SDS011;26461;45.630;9.418;2023-01-29T15:10:59;11.95;;;7.47;;
40755;SDS011;26461;45.630;9.418;2023-01-29T15:17:48;15.48;;;8.93;;
40755;SDS011;26461;45.630;9.418;2023-01-29T15:21:02;16.38;;;8.88;;
40755;SDS011;26461;45.630;9.418;2023-01-29T15:24:15;17.33;;;8.00;;
40755;SDS011;26461;45.630;9.418;2023-01-29T15:27:20;12.45;;;8.38;;
40755;SDS011;26461;45.630;9.418;2023-01-29T15:30:28;21.08;;;8.90;;
40755;SDS011;26461;45.630;9.418;2023-01-29T15:33:43;13.90;;;7.18;;
40755;SDS011;26461;45.630;9.418;2023-01-29T15:36:56;15.95;;;9.30;;
40755;SDS011;26461;45.630;9.418;2023-01-29T15:40:01;8.95;;;7.40;;
40755;SDS011;26461;45.630;9.418;2023-01-29T15:43:20;23.65;;;11.32;;
40755;SDS011;26461;45.630;9.418;2023-01-29T15:46:33;18.05;;;8.13;;
40755;SDS011;26461;45.630;9.418;2023-01-29T15:49:41;16.38;;;8.60;;
40755;SDS011;26461;45.630;9.418;2023-01-29T15:52:55;15.73;;;9.30;;
40755;SDS011;26461;45.630;9.418;2023-01-29T15:56:08;12.02;;;9.30;;
40755;SDS011;26461;45.630;9.418;2023-01-29T15:59:24;12.48;;;7.70;;
40755;SDS011;26461;45.630;9.418;2023-01-29T16:02:42;12.88;;;8.75;;
40755;SDS011;26461;45.630;9.418;2023-01-29T16:05:51;31.88;;;10.13;;
40755;SDS011;26461;45.630;9.418;2023-01-29T16:09:03;14.43;;;8.90;;
40755;SDS011;26461;45.630;9.418;2023-01-29T16:12:14;16.15;;;8.63;;
40755;SDS011;26461;45.630;9.418;2023-01-29T16:15:28;22.15;;;10.32;;
40755;SDS011;26461;45.630;9.418;2023-01-29T16:18:41;10.93;;;7.22;;
40755;SDS011;26461;45.630;9.418;2023-01-29T16:22:02;20.95;;;10.65;;
40755;SDS011;26461;45.630;9.418;2023-01-29T16:25:14;11.88;;;8.25;;
40755;SDS011;26461;45.630;9.418;2023-01-29T16:28:24;15.57;;;8.70;;
40755;SDS011;26461;45.630;9.418;2023-01-29T16:31:35;14.07;;;10.75;;
40755;SDS011;26461;45.630;9.418;2023-01-29T16:34:46;19.80;;;10.52;;
40755;SDS011;26461;45.630;9.418;2023-01-29T16:37:58;20.65;;;8.48;;
40755;SDS011;26461;45.630;9.418;2023-01-29T16:41:14;19.38;;;12.85;;
40755;SDS011;26461;45.630;9.418;2023-01-29T16:44:31;20.27;;;9.98;;
40755;SDS011;26461;45.630;9.418;2023-01-29T16:47:45;11.40;;;6.55;;
40755;SDS011;26461;45.630;9.418;2023-01-29T16:51:28;16.42;;;13.27;;
40755;SDS011;26461;45.630;9.418;2023-01-29T16:54:40;19.00;;;10.05;;
40755;SDS011;26461;45.630;9.418;2023-01-29T16:57:52;9.25;;;6.85;;
40755;SDS011;26461;45.630;9.418;2023-01-29T17:01:05;18.58;;;10.65;;
40755;SDS011;26461;45.630;9.418;2023-01-29T17:04:18;12.52;;;9.07;;
40755;SDS011;26461;45.630;9.418;2023-01-29T17:07:29;21.35;;;13.30;;
40755;SDS011;26461;45.630;9.418;2023-01-29T17:10:35;22.10;;;11.25;;
40755;SDS011;26461;45.630;9.418;2023-01-29T17:13:45;26.50;;;9.27;;
40755;SDS011;26461;45.630;9.418;2023-01-29T17:17:05;10.90;;;7.07;;
40755;SDS011;26461;45.630;9.418;2023-01-29T17:20:17;12.10;;;8.30;;
40755;SDS011;26461;45.630;9.418;2023-01-29T17:23:22;19.95;;;11.93;;
40755;SDS011;26461;45.630;9.418;2023-01-29T17:26:27;16.77;;;9.15;;
40755;SDS011;26461;45.630;9.418;2023-01-29T17:29:35;14.23;;;8.25;;
40755;SDS011;26461;45.630;9.418;2023-01-29T17:32:42;14.95;;;10.85;;
40755;SDS011;26461;45.630;9.418;2023-01-29T17:35:52;14.63;;;9.88;;
40755;SDS011;26461;45.630;9.418;2023-01-29T17:39:04;35.05;;;12.05;;
40755;SDS011;26461;45.630;9.418;2023-01-29T17:42:22;17.50;;;8.95;;
40755;SDS011;26461;45.630;9.418;2023-01-29T17:45:27;19.27;;;10.60;;
40755;SDS011;26461;45.630;9.418;2023-01-29T17:48:37;17.98;;;12.13;;
40755;SDS011;26461;45.630;9.418;2023-01-29T17:51:42;19.30;;;11.55;;
40755;SDS011;26461;45.630;9.418;2023-01-29T17:54:52;24.40;;;12.15;;
40755;SDS011;26461;45.630;9.418;2023-01-29T17:58:01;26.90;;;12.15;;
40755;SDS011;26461;45.630;9.418;2023-01-29T18:01:06;33.58;;;17.15;;
40755;SDS011;26461;45.630;9.418;2023-01-29T18:04:12;33.30;;;15.45;;
40755;SDS011;26461;45.630;9.418;2023-01-29T18:07:22;22.88;;;14.60;;
40755;SDS011;26461;45.630;9.418;2023-01-29T18:10:27;23.90;;;13.80;;
40755;SDS011;26461;45.630;9.418;2023-01-29T18:13:37;20.77;;;16.05;;
40755;SDS011;26461;45.630;9.418;2023-01-29T18:16:50;29.65;;;13.18;;
40755;SDS011;26461;45.630;9.418;2023-01-29T18:20:00;25.30;;;17.60;;
40755;SDS011;26461;45.630;9.418;2023-01-29T18:23:10;25.45;;;17.65;;
40755;SDS011;26461;45.630;9.418;2023-01-29T18:26:20;33.45;;;19.15;;
40755;SDS011;26461;45.630;9.418;2023-01-29T18:29:31;24.73;;;17.42;;
40755;SDS011;26461;45.630;9.418;2023-01-29T18:32:40;22.25;;;15.80;;
40755;SDS011;26461;45.630;9.418;2023-01-29T18:35:50;28.63;;;18.05;;
40755;SDS011;26461;45.630;9.418;2023-01-29T18:39:03;18.40;;;14.05;;
40755;SDS011;26461;45.630;9.418;2023-01-29T18:42:13;24.73;;;14.27;;
40755;SDS011;26461;45.630;9.418;2023-01-29T18:45:23;18.52;;;14.38;;
40755;SDS011;26461;45.630;9.418;2023-01-29T18:48:33;32.15;;;16.77;;
40755;SDS011;26461;45.630;9.418;2023-01-29T18:51:44;38.28;;;19.05;;
40755;SDS011;26461;45.630;9.418;2023-01-29T18:54:54;22.02;;;15.18;;
40755;SDS011;26461;45.630;9.418;2023-01-29T18:58:05;20.80;;;17.13;;
40755;SDS011;26461;45.630;9.418;2023-01-29T19:01:17;24.98;;;17.02;;
40755;SDS011;26461;45.630;9.418;2023-01-29T19:04:27;33.35;;;19.50;;
40755;SDS011;26461;45.630;9.418;2023-01-29T19:07:37;18.65;;;12.68;;
40755;SDS011;26461;45.630;9.418;2023-01-29T19:10:47;20.42;;;14.95;;
40755;SDS011;26461;45.630;9.418;2023-01-29T19:13:57;19.73;;;17.00;;
40755;SDS011;26461;45.630;9.418;2023-01-29T19:17:07;19.23;;;11.27;;
40755;SDS011;26461;45.630;9.418;2023-01-29T19:20:17;26.38;;;14.75;;
40755;SDS011;26461;45.630;9.418;2023-01-29T19:23:27;27.05;;;15.70;;
40755;SDS011;26461;45.630;9.418;2023-01-29T19:26:38;17.52;;;14.95;;
40755;SDS011;26461;45.630;9.418;2023-01-29T19:29:48;37.92;;;15.75;;
40755;SDS011;26461;45.630;9.418;2023-01-29T19:32:59;23.67;;;13.75;;
40755;SDS011;26461;45.630;9.418;2023-01-29T19:36:09;19.63;;;13.18;;
40755;SDS011;26461;45.630;9.418;2023-01-29T19:39:20;24.45;;;16.55;;
40755;SDS011;26461;45.630;9.418;2023-01-29T19:42:30;28.83;;;16.73;;
40755;SDS011;26461;45.630;9.418;2023-01-29T19:45:40;24.77;;;19.33;;
40755;SDS011;26461;45.630;9.418;2023-01-29T19:48:50;19.67;;;15.95;;
40755;SDS011;26461;45.630;9.418;2023-01-29T19:52:03;24.33;;;16.00;;
40755;SDS011;26461;45.630;9.418;2023-01-29T19:55:15;33.40;;;20.45;;
40755;SDS011;26461;45.630;9.418;2023-01-29T19:58:20;34.20;;;19.70;;
40755;SDS011;26461;45.630;9.418;2023-01-29T20:01:30;18.40;;;15.75;;
40755;SDS011;26461;45.630;9.418;2023-01-29T20:04:39;22.70;;;17.60;;
40755;SDS011;26461;45.630;9.418;2023-01-29T20:07:49;26.65;;;16.35;;
40755;SDS011;26461;45.630;9.418;2023-01-29T20:11:00;22.08;;;16.35;;
40755;SDS011;26461;45.630;9.418;2023-01-29T20:14:10;31.45;;;19.48;;
40755;SDS011;26461;45.630;9.418;2023-01-29T20:17:15;32.42;;;20.77;;
40755;SDS011;26461;45.630;9.418;2023-01-29T20:20:25;32.28;;;23.38;;
40755;SDS011;26461;45.630;9.418;2023-01-29T20:23:38;21.85;;;20.52;;
40755;SDS011;26461;45.630;9.418;2023-01-29T20:26:50;32.42;;;24.20;;
40755;SDS011;26461;45.630;9.418;2023-01-29T20:30:01;36.20;;;21.25;;
40755;SDS011;26461;45.630;9.418;2023-01-29T20:33:11;45.50;;;26.55;;
40755;SDS011;26461;45.630;9.418;2023-01-29T20:36:16;38.65;;;25.60;;
40755;SDS011;26461;45.630;9.418;2023-01-29T20:39:26;41.42;;;25.10;;
40755;SDS011;26461;45.630;9.418;2023-01-29T20:42:36;27.00;;;20.63;;
40755;SDS011;26461;45.630;9.418;2023-01-29T20:45:46;30.38;;;23.23;;
40755;SDS011;26461;45.630;9.418;2023-01-29T20:48:56;28.08;;;23.88;;
40755;SDS011;26461;45.630;9.418;2023-01-29T20:52:06;41.10;;;27.42;;